sensor_id;sensor_type;location;lat;lon;timestamp;temperature;humidity
42833;DHT22;64089;51.478;5.692;2023-12-29T00:01:29;11.40;99.90
42833;DHT22;64089;51.478;5.692;2023-12-29T00:03:55;11.40;99.90
42833;DHT22;64089;51.478;5.692;2023-12-29T00:06:21;11.40;99.90
42833;DHT22;64089;51.478;5.692;2023-12-29T00:08:46;11.40;99.90
42833;DHT22;64089;51.478;5.692;2023-12-29T00:11:22;11.40;99.90
42833;DHT22;64089;51.478;5.692;2023-12-29T00:13:48;11.40;99.90
42833;DHT22;64089;51.478;5.692;2023-12-29T00:16:15;11.40;99.90
42833;DHT22;64089;51.478;5.692;2023-12-29T00:18:40;11.40;99.90
42833;DHT22;64089;51.478;5.692;2023-12-29T00:21:06;11.40;99.90
42833;DHT22;64089;51.478;5.692;2023-12-29T00:23:32;11.40;99.90
42833;DHT22;64089;51.478;5.692;2023-12-29T00:25:58;11.40;99.90
42833;DHT22;64089;51.478;5.692;2023-12-29T00:28:23;11.40;99.90
42833;DHT22;64089;51.478;5.692;2023-12-29T00:30:49;11.40;99.90
42833;DHT22;64089;51.478;5.692;2023-12-29T00:33:15;11.40;99.90
42833;DHT22;64089;51.478;5.692;2023-12-29T00:35:40;11.40;99.90
42833;DHT22;64089;51.478;5.692;2023-12-29T00:38:06;11.40;99.90
42833;DHT22;64089;51.478;5.692;2023-12-29T00:40:33;11.40;99.90
42833;DHT22;64089;51.478;5.692;2023-12-29T00:43:01;11.40;99.90
42833;DHT22;64089;51.478;5.692;2023-12-29T00:45:27;11.40;99.90
42833;DHT22;64089;51.478;5.692;2023-12-29T00:47:59;11.40;99.90
42833;DHT22;64089;51.478;5.692;2023-12-29T00:50:25;11.40;99.90
42833;DHT22;64089;51.478;5.692;2023-12-29T00:52:52;11.40;99.90
42833;DHT22;64089;51.478;5.692;2023-12-29T00:55:17;11.40;99.90
42833;DHT22;64089;51.478;5.692;2023-12-29T00:57:43;11.40;99.90
42833;DHT22;64089;51.478;5.692;2023-12-29T01:00:11;11.40;99.90
42833;DHT22;64089;51.478;5.692;2023-12-29T01:02:37;11.40;99.90
42833;DHT22;64089;51.478;5.692;2023-12-29T01:05:03;11.40;99.90
42833;DHT22;64089;51.478;5.692;2023-12-29T01:07:28;11.30;99.90
42833;DHT22;64089;51.478;5.692;2023-12-29T01:09:54;11.30;99.90
42833;DHT22;64089;51.478;5.692;2023-12-29T01:12:20;11.20;99.90
42833;DHT22;64089;51.478;5.692;2023-12-29T01:14:45;11.10;99.90
42833;DHT22;64089;51.478;5.692;2023-12-29T01:17:11;10.90;99.90
42833;DHT22;64089;51.478;5.692;2023-12-29T01:19:36;10.80;99.90
42833;DHT22;64089;51.478;5.692;2023-12-29T01:22:02;10.60;99.90
42833;DHT22;64089;51.478;5.692;2023-12-29T01:24:28;10.50;99.90
42833;DHT22;64089;51.478;5.692;2023-12-29T01:26:53;10.40;99.90
42833;DHT22;64089;51.478;5.692;2023-12-29T01:29:19;10.40;99.90
42833;DHT22;64089;51.478;5.692;2023-12-29T01:31:44;10.30;99.90
42833;DHT22;64089;51.478;5.692;2023-12-29T01:34:10;10.30;99.90
42833;DHT22;64089;51.478;5.692;2023-12-29T01:36:36;10.20;99.90
42833;DHT22;64089;51.478;5.692;2023-12-29T01:39:01;10.20;99.90
42833;DHT22;64089;51.478;5.692;2023-12-29T01:41:29;10.20;99.90
42833;DHT22;64089;51.478;5.692;2023-12-29T01:46:25;10.10;99.90
42833;DHT22;64089;51.478;5.692;2023-12-29T01:48:51;10.10;99.90
42833;DHT22;64089;51.478;5.692;2023-12-29T01:51:17;10.00;99.90
42833;DHT22;64089;51.478;5.692;2023-12-29T01:53:44;10.00;99.90
42833;DHT22;64089;51.478;5.692;2023-12-29T01:56:10;10.00;99.90
42833;DHT22;64089;51.478;5.692;2023-12-29T01:58:36;10.00;99.90
42833;DHT22;64089;51.478;5.692;2023-12-29T02:01:03;9.90;99.90
42833;DHT22;64089;51.478;5.692;2023-12-29T02:03:30;9.90;99.90
42833;DHT22;64089;51.478;5.692;2023-12-29T02:05:56;9.90;99.90
42833;DHT22;64089;51.478;5.692;2023-12-29T02:08:22;9.90;99.90
42833;DHT22;64089;51.478;5.692;2023-12-29T02:10:48;9.90;99.90
42833;DHT22;64089;51.478;5.692;2023-12-29T02:13:14;9.90;99.90
42833;DHT22;64089;51.478;5.692;2023-12-29T02:15:40;9.90;99.90
42833;DHT22;64089;51.478;5.692;2023-12-29T02:18:08;9.90;99.90
42833;DHT22;64089;51.478;5.692;2023-12-29T02:20:35;9.90;99.90
42833;DHT22;64089;51.478;5.692;2023-12-29T02:23:02;9.90;99.90
42833;DHT22;64089;51.478;5.692;2023-12-29T02:25:28;9.90;99.90
42833;DHT22;64089;51.478;5.692;2023-12-29T02:33:29;9.90;99.90
42833;DHT22;64089;51.478;5.692;2023-12-29T02:35:59;9.90;99.90
42833;DHT22;64089;51.478;5.692;2023-12-29T02:38:26;10.00;99.90
42833;DHT22;64089;51.478;5.692;2023-12-29T02:40:56;10.00;99.90
42833;DHT22;64089;51.478;5.692;2023-12-29T02:43:21;10.00;99.90
42833;DHT22;64089;51.478;5.692;2023-12-29T02:45:47;10.10;99.90
42833;DHT22;64089;51.478;5.692;2023-12-29T02:48:12;10.10;99.90
42833;DHT22;64089;51.478;5.692;2023-12-29T02:50:38;10.10;99.90
42833;DHT22;64089;51.478;5.692;2023-12-29T02:53:04;10.10;99.90
42833;DHT22;64089;51.478;5.692;2023-12-29T02:55:29;10.10;99.90
42833;DHT22;64089;51.478;5.692;2023-12-29T02:57:55;10.20;99.90
42833;DHT22;64089;51.478;5.692;2023-12-29T03:00:20;10.20;99.90
42833;DHT22;64089;51.478;5.692;2023-12-29T03:02:46;10.20;99.90
42833;DHT22;64089;51.478;5.692;2023-12-29T03:05:12;10.30;99.90
42833;DHT22;64089;51.478;5.692;2023-12-29T03:07:37;10.30;99.90
42833;DHT22;64089;51.478;5.692;2023-12-29T03:10:05;10.40;99.90
42833;DHT22;64089;51.478;5.692;2023-12-29T03:12:31;10.40;99.90
42833;DHT22;64089;51.478;5.692;2023-12-29T03:14:56;10.50;99.90
42833;DHT22;64089;51.478;5.692;2023-12-29T03:17:22;10.50;99.90
42833;DHT22;64089;51.478;5.692;2023-12-29T03:19:47;10.50;99.90
42833;DHT22;64089;51.478;5.692;2023-12-29T03:22:13;10.60;99.90
42833;DHT22;64089;51.478;5.692;2023-12-29T03:24:42;10.60;99.90
42833;DHT22;64089;51.478;5.692;2023-12-29T03:27:08;10.50;99.90
42833;DHT22;64089;51.478;5.692;2023-12-29T03:29:34;10.60;99.90
42833;DHT22;64089;51.478;5.692;2023-12-29T03:31:59;10.60;99.90
42833;DHT22;64089;51.478;5.692;2023-12-29T03:34:25;10.60;99.90
42833;DHT22;64089;51.478;5.692;2023-12-29T03:36:50;10.60;99.90
42833;DHT22;64089;51.478;5.692;2023-12-29T03:39:16;10.70;99.90
42833;DHT22;64089;51.478;5.692;2023-12-29T03:41:41;10.70;99.90
42833;DHT22;64089;51.478;5.692;2023-12-29T03:44:07;10.70;99.90
42833;DHT22;64089;51.478;5.692;2023-12-29T03:46:33;10.80;99.90
42833;DHT22;64089;51.478;5.692;2023-12-29T03:48:59;10.70;99.90
42833;DHT22;64089;51.478;5.692;2023-12-29T03:51:24;10.80;99.90
42833;DHT22;64089;51.478;5.692;2023-12-29T03:53:50;10.80;99.90
42833;DHT22;64089;51.478;5.692;2023-12-29T03:56:18;10.80;99.90
42833;DHT22;64089;51.478;5.692;2023-12-29T03:58:44;10.80;99.90
42833;DHT22;64089;51.478;5.692;2023-12-29T04:01:11;10.80;99.90
42833;DHT22;64089;51.478;5.692;2023-12-29T04:03:37;10.80;99.90
42833;DHT22;64089;51.478;5.692;2023-12-29T04:06:04;10.80;99.90
42833;DHT22;64089;51.478;5.692;2023-12-29T04:08:29;10.80;99.90
42833;DHT22;64089;51.478;5.692;2023-12-29T04:10:55;10.90;99.90
42833;DHT22;64089;51.478;5.692;2023-12-29T04:13:21;10.80;99.90
42833;DHT22;64089;51.478;5.692;2023-12-29T04:15:46;10.90;99.90
42833;DHT22;64089;51.478;5.692;2023-12-29T04:18:12;10.90;99.90
42833;DHT22;64089;51.478;5.692;2023-12-29T04:20:37;10.90;99.90
42833;DHT22;64089;51.478;5.692;2023-12-29T04:23:05;10.80;99.90
42833;DHT22;64089;51.478;5.692;2023-12-29T04:25:31;10.90;99.90
42833;DHT22;64089;51.478;5.692;2023-12-29T04:27:57;10.90;99.90
42833;DHT22;64089;51.478;5.692;2023-12-29T04:30:22;10.90;99.90
42833;DHT22;64089;51.478;5.692;2023-12-29T04:32:48;10.90;99.90
42833;DHT22;64089;51.478;5.692;2023-12-29T04:35:13;11.00;99.90
42833;DHT22;64089;51.478;5.692;2023-12-29T04:37:41;10.90;99.90
42833;DHT22;64089;51.478;5.692;2023-12-29T04:40:07;10.90;99.90
42833;DHT22;64089;51.478;5.692;2023-12-29T04:42:33;10.90;99.90
42833;DHT22;64089;51.478;5.692;2023-12-29T04:44:58;10.80;99.90
42833;DHT22;64089;51.478;5.692;2023-12-29T04:47:24;10.90;99.90
42833;DHT22;64089;51.478;5.692;2023-12-29T04:49:49;10.90;99.90
42833;DHT22;64089;51.478;5.692;2023-12-29T04:52:15;10.90;99.90
42833;DHT22;64089;51.478;5.692;2023-12-29T04:54:43;10.90;99.90
42833;DHT22;64089;51.478;5.692;2023-12-29T04:57:09;10.90;99.90
42833;DHT22;64089;51.478;5.692;2023-12-29T04:59:34;10.80;99.90
42833;DHT22;64089;51.478;5.692;2023-12-29T05:02:00;10.70;99.90
42833;DHT22;64089;51.478;5.692;2023-12-29T05:04:26;10.70;99.90
42833;DHT22;64089;51.478;5.692;2023-12-29T05:06:51;10.70;99.90
42833;DHT22;64089;51.478;5.692;2023-12-29T05:09:17;10.70;99.90
42833;DHT22;64089;51.478;5.692;2023-12-29T05:11:43;10.80;99.90
42833;DHT22;64089;51.478;5.692;2023-12-29T05:14:08;10.80;99.90
42833;DHT22;64089;51.478;5.692;2023-12-29T05:16:35;10.80;99.90
42833;DHT22;64089;51.478;5.692;2023-12-29T05:19:00;10.80;99.90
42833;DHT22;64089;51.478;5.692;2023-12-29T05:21:26;10.70;99.90
42833;DHT22;64089;51.478;5.692;2023-12-29T05:23:52;10.70;99.90
42833;DHT22;64089;51.478;5.692;2023-12-29T05:26:18;10.70;99.90
42833;DHT22;64089;51.478;5.692;2023-12-29T05:28:43;10.70;99.90
42833;DHT22;64089;51.478;5.692;2023-12-29T05:31:09;10.70;99.90
42833;DHT22;64089;51.478;5.692;2023-12-29T05:33:35;10.70;99.90
42833;DHT22;64089;51.478;5.692;2023-12-29T05:36:08;10.80;99.90
42833;DHT22;64089;51.478;5.692;2023-12-29T05:38:35;10.80;99.90
42833;DHT22;64089;51.478;5.692;2023-12-29T05:41:02;10.80;99.90
42833;DHT22;64089;51.478;5.692;2023-12-29T05:43:30;10.80;99.90
42833;DHT22;64089;51.478;5.692;2023-12-29T05:45:56;10.70;99.90
42833;DHT22;64089;51.478;5.692;2023-12-29T05:48:22;10.70;99.90
42833;DHT22;64089;51.478;5.692;2023-12-29T05:50:49;10.70;99.90
42833;DHT22;64089;51.478;5.692;2023-12-29T05:53:15;10.60;99.90
42833;DHT22;64089;51.478;5.692;2023-12-29T05:55:41;10.60;99.90
42833;DHT22;64089;51.478;5.692;2023-12-29T05:58:07;10.60;99.90
42833;DHT22;64089;51.478;5.692;2023-12-29T06:00:32;10.60;99.90
42833;DHT22;64089;51.478;5.692;2023-12-29T06:02:58;10.50;99.90
42833;DHT22;64089;51.478;5.692;2023-12-29T06:05:24;10.60;99.90
42833;DHT22;64089;51.478;5.692;2023-12-29T06:07:50;10.60;99.90
42833;DHT22;64089;51.478;5.692;2023-12-29T06:10:16;10.60;99.90
42833;DHT22;64089;51.478;5.692;2023-12-29T06:12:41;10.60;99.90
42833;DHT22;64089;51.478;5.692;2023-12-29T06:15:08;10.70;99.90
42833;DHT22;64089;51.478;5.692;2023-12-29T06:17:33;10.70;99.90
42833;DHT22;64089;51.478;5.692;2023-12-29T06:20:01;10.70;99.90
42833;DHT22;64089;51.478;5.692;2023-12-29T06:22:27;10.70;99.90
42833;DHT22;64089;51.478;5.692;2023-12-29T06:24:53;10.70;99.90
42833;DHT22;64089;51.478;5.692;2023-12-29T06:27:19;10.70;99.90
42833;DHT22;64089;51.478;5.692;2023-12-29T06:29:44;10.80;99.90
42833;DHT22;64089;51.478;5.692;2023-12-29T06:32:10;10.80;99.90
42833;DHT22;64089;51.478;5.692;2023-12-29T06:34:36;10.70;99.90
42833;DHT22;64089;51.478;5.692;2023-12-29T06:37:01;10.80;99.90
42833;DHT22;64089;51.478;5.692;2023-12-29T06:39:27;10.70;99.90
42833;DHT22;64089;51.478;5.692;2023-12-29T06:41:53;10.70;99.90
42833;DHT22;64089;51.478;5.692;2023-12-29T06:44:18;10.70;99.90
42833;DHT22;64089;51.478;5.692;2023-12-29T06:46:44;10.70;99.90
42833;DHT22;64089;51.478;5.692;2023-12-29T06:49:10;10.70;99.90
42833;DHT22;64089;51.478;5.692;2023-12-29T06:51:35;10.60;99.90
42833;DHT22;64089;51.478;5.692;2023-12-29T06:54:01;10.60;99.90
42833;DHT22;64089;51.478;5.692;2023-12-29T06:56:27;10.60;99.90
42833;DHT22;64089;51.478;5.692;2023-12-29T06:58:53;10.60;99.90
42833;DHT22;64089;51.478;5.692;2023-12-29T07:01:19;10.60;99.90
42833;DHT22;64089;51.478;5.692;2023-12-29T07:03:44;10.60;99.90
42833;DHT22;64089;51.478;5.692;2023-12-29T07:06:10;10.50;99.90
42833;DHT22;64089;51.478;5.692;2023-12-29T07:08:36;10.50;99.90
42833;DHT22;64089;51.478;5.692;2023-12-29T07:11:02;10.50;99.90
42833;DHT22;64089;51.478;5.692;2023-12-29T07:13:28;10.50;99.90
42833;DHT22;64089;51.478;5.692;2023-12-29T07:15:54;10.50;99.90
42833;DHT22;64089;51.478;5.692;2023-12-29T07:18:20;10.50;99.90
42833;DHT22;64089;51.478;5.692;2023-12-29T07:20:45;10.50;99.90
42833;DHT22;64089;51.478;5.692;2023-12-29T07:23:11;10.50;99.90
42833;DHT22;64089;51.478;5.692;2023-12-29T07:25:36;10.40;99.90
42833;DHT22;64089;51.478;5.692;2023-12-29T07:28:02;10.50;99.90
42833;DHT22;64089;51.478;5.692;2023-12-29T07:30:28;10.40;99.90
42833;DHT22;64089;51.478;5.692;2023-12-29T07:32:53;10.40;99.90
42833;DHT22;64089;51.478;5.692;2023-12-29T07:35:19;10.40;99.90
42833;DHT22;64089;51.478;5.692;2023-12-29T07:37:48;10.40;99.90
42833;DHT22;64089;51.478;5.692;2023-12-29T07:40:14;10.40;99.90
42833;DHT22;64089;51.478;5.692;2023-12-29T07:42:40;10.40;99.90
42833;DHT22;64089;51.478;5.692;2023-12-29T07:45:06;10.40;99.90
42833;DHT22;64089;51.478;5.692;2023-12-29T07:47:34;10.40;99.90
42833;DHT22;64089;51.478;5.692;2023-12-29T07:49:59;10.30;99.90
42833;DHT22;64089;51.478;5.692;2023-12-29T07:52:25;10.30;99.90
42833;DHT22;64089;51.478;5.692;2023-12-29T07:54:50;10.30;99.90
42833;DHT22;64089;51.478;5.692;2023-12-29T07:57:16;10.30;99.90
42833;DHT22;64089;51.478;5.692;2023-12-29T07:59:42;10.30;99.90
42833;DHT22;64089;51.478;5.692;2023-12-29T08:02:07;10.30;99.90
42833;DHT22;64089;51.478;5.692;2023-12-29T08:04:33;10.30;99.90
42833;DHT22;64089;51.478;5.692;2023-12-29T08:06:58;10.30;99.90
42833;DHT22;64089;51.478;5.692;2023-12-29T08:09:25;10.30;99.90
42833;DHT22;64089;51.478;5.692;2023-12-29T08:11:51;10.30;99.90
42833;DHT22;64089;51.478;5.692;2023-12-29T08:14:16;10.30;99.90
42833;DHT22;64089;51.478;5.692;2023-12-29T08:16:42;10.30;99.90
42833;DHT22;64089;51.478;5.692;2023-12-29T08:19:08;10.30;99.90
42833;DHT22;64089;51.478;5.692;2023-12-29T08:21:35;10.40;99.90
42833;DHT22;64089;51.478;5.692;2023-12-29T08:24:01;10.40;99.90
42833;DHT22;64089;51.478;5.692;2023-12-29T08:26:27;10.40;99.90
42833;DHT22;64089;51.478;5.692;2023-12-29T08:28:52;10.40;99.90
42833;DHT22;64089;51.478;5.692;2023-12-29T08:31:18;10.50;99.90
42833;DHT22;64089;51.478;5.692;2023-12-29T08:33:44;10.50;99.90
42833;DHT22;64089;51.478;5.692;2023-12-29T08:36:11;10.50;99.90
42833;DHT22;64089;51.478;5.692;2023-12-29T08:38:38;10.50;99.90
42833;DHT22;64089;51.478;5.692;2023-12-29T08:41:03;10.50;99.90
42833;DHT22;64089;51.478;5.692;2023-12-29T08:43:30;10.40;99.90
42833;DHT22;64089;51.478;5.692;2023-12-29T08:45:56;10.40;99.90
42833;DHT22;64089;51.478;5.692;2023-12-29T08:48:22;10.40;99.90
42833;DHT22;64089;51.478;5.692;2023-12-29T08:50:48;10.40;99.90
42833;DHT22;64089;51.478;5.692;2023-12-29T08:53:14;10.40;99.90
42833;DHT22;64089;51.478;5.692;2023-12-29T08:55:41;10.50;99.90
42833;DHT22;64089;51.478;5.692;2023-12-29T08:58:07;10.50;99.90
42833;DHT22;64089;51.478;5.692;2023-12-29T09:00:32;10.50;99.90
42833;DHT22;64089;51.478;5.692;2023-12-29T09:02:58;10.50;99.90
42833;DHT22;64089;51.478;5.692;2023-12-29T09:05:23;10.50;99.90
42833;DHT22;64089;51.478;5.692;2023-12-29T09:07:49;10.60;99.90
42833;DHT22;64089;51.478;5.692;2023-12-29T09:10:15;10.50;99.90
42833;DHT22;64089;51.478;5.692;2023-12-29T09:12:41;10.50;99.90
42833;DHT22;64089;51.478;5.692;2023-12-29T09:15:07;10.50;99.90
42833;DHT22;64089;51.478;5.692;2023-12-29T09:17:33;10.50;99.90
42833;DHT22;64089;51.478;5.692;2023-12-29T09:19:59;10.50;99.90
42833;DHT22;64089;51.478;5.692;2023-12-29T09:22:25;10.50;99.90
42833;DHT22;64089;51.478;5.692;2023-12-29T09:24:51;10.50;99.90
42833;DHT22;64089;51.478;5.692;2023-12-29T09:27:16;10.40;99.90
42833;DHT22;64089;51.478;5.692;2023-12-29T09:29:42;10.50;99.90
42833;DHT22;64089;51.478;5.692;2023-12-29T09:32:08;10.50;99.90
42833;DHT22;64089;51.478;5.692;2023-12-29T09:34:34;10.50;99.90
42833;DHT22;64089;51.478;5.692;2023-12-29T09:36:59;10.50;99.90
42833;DHT22;64089;51.478;5.692;2023-12-29T09:39:25;10.60;99.90
42833;DHT22;64089;51.478;5.692;2023-12-29T09:41:58;10.60;99.90
42833;DHT22;64089;51.478;5.692;2023-12-29T09:44:26;10.60;99.90
42833;DHT22;64089;51.478;5.692;2023-12-29T09:46:54;10.60;99.90
42833;DHT22;64089;51.478;5.692;2023-12-29T09:49:20;10.70;99.90
42833;DHT22;64089;51.478;5.692;2023-12-29T09:51:48;10.70;99.90
42833;DHT22;64089;51.478;5.692;2023-12-29T09:54:14;10.70;99.90
42833;DHT22;64089;51.478;5.692;2023-12-29T09:56:41;10.70;99.90
42833;DHT22;64089;51.478;5.692;2023-12-29T09:59:09;10.80;99.90
42833;DHT22;64089;51.478;5.692;2023-12-29T10:01:37;10.70;99.90
42833;DHT22;64089;51.478;5.692;2023-12-29T10:04:04;10.70;99.90
42833;DHT22;64089;51.478;5.692;2023-12-29T10:06:34;10.70;99.90
42833;DHT22;64089;51.478;5.692;2023-12-29T10:09:03;10.70;99.90
42833;DHT22;64089;51.478;5.692;2023-12-29T10:11:34;10.70;99.90
42833;DHT22;64089;51.478;5.692;2023-12-29T10:16:52;10.70;99.90
42833;DHT22;64089;51.478;5.692;2023-12-29T10:22:18;10.80;99.90
42833;DHT22;64089;51.478;5.692;2023-12-29T10:24:46;10.90;99.90
42833;DHT22;64089;51.478;5.692;2023-12-29T10:27:13;10.90;99.90
42833;DHT22;64089;51.478;5.692;2023-12-29T10:29:38;11.00;99.90
42833;DHT22;64089;51.478;5.692;2023-12-29T10:32:04;11.00;99.90
42833;DHT22;64089;51.478;5.692;2023-12-29T10:34:30;11.10;99.90
42833;DHT22;64089;51.478;5.692;2023-12-29T10:36:57;11.20;99.90
42833;DHT22;64089;51.478;5.692;2023-12-29T10:39:23;11.30;99.90
42833;DHT22;64089;51.478;5.692;2023-12-29T10:41:49;11.30;99.90
42833;DHT22;64089;51.478;5.692;2023-12-29T10:44:16;11.30;99.90
42833;DHT22;64089;51.478;5.692;2023-12-29T10:46:42;11.30;99.90
42833;DHT22;64089;51.478;5.692;2023-12-29T10:49:11;11.20;99.90
42833;DHT22;64089;51.478;5.692;2023-12-29T10:51:38;11.30;99.90
42833;DHT22;64089;51.478;5.692;2023-12-29T10:54:04;11.30;99.90
42833;DHT22;64089;51.478;5.692;2023-12-29T10:56:31;11.20;99.90
42833;DHT22;64089;51.478;5.692;2023-12-29T10:59:00;11.30;99.90
42833;DHT22;64089;51.478;5.692;2023-12-29T11:01:28;11.30;99.90
42833;DHT22;64089;51.478;5.692;2023-12-29T11:04:01;11.30;99.90
42833;DHT22;64089;51.478;5.692;2023-12-29T11:06:28;11.40;99.90
42833;DHT22;64089;51.478;5.692;2023-12-29T11:08:57;11.40;99.90
42833;DHT22;64089;51.478;5.692;2023-12-29T11:11:23;11.30;99.90
42833;DHT22;64089;51.478;5.692;2023-12-29T11:13:49;11.30;99.90
42833;DHT22;64089;51.478;5.692;2023-12-29T11:16:15;11.40;99.90
42833;DHT22;64089;51.478;5.692;2023-12-29T11:18:44;11.50;99.90
42833;DHT22;64089;51.478;5.692;2023-12-29T11:21:10;11.50;99.90
42833;DHT22;64089;51.478;5.692;2023-12-29T11:23:37;11.50;99.90
42833;DHT22;64089;51.478;5.692;2023-12-29T11:26:04;11.50;99.90
42833;DHT22;64089;51.478;5.692;2023-12-29T11:28:29;11.40;99.90
42833;DHT22;64089;51.478;5.692;2023-12-29T11:30:55;11.50;99.90
42833;DHT22;64089;51.478;5.692;2023-12-29T11:33:31;11.40;99.90
42833;DHT22;64089;51.478;5.692;2023-12-29T11:36:05;11.30;99.90
42833;DHT22;64089;51.478;5.692;2023-12-29T11:38:59;11.30;99.90
42833;DHT22;64089;51.478;5.692;2023-12-29T11:41:56;11.10;99.90
42833;DHT22;64089;51.478;5.692;2023-12-29T11:44:27;10.90;99.90
42833;DHT22;64089;51.478;5.692;2023-12-29T11:46:53;10.80;99.90
42833;DHT22;64089;51.478;5.692;2023-12-29T11:49:19;10.70;99.90
42833;DHT22;64089;51.478;5.692;2023-12-29T11:51:47;10.60;99.90
42833;DHT22;64089;51.478;5.692;2023-12-29T11:54:25;10.50;99.90
42833;DHT22;64089;51.478;5.692;2023-12-29T11:56:52;10.40;99.90
42833;DHT22;64089;51.478;5.692;2023-12-29T11:59:25;10.40;99.90
42833;DHT22;64089;51.478;5.692;2023-12-29T12:01:54;10.30;99.90
42833;DHT22;64089;51.478;5.692;2023-12-29T12:04:41;10.20;99.90
42833;DHT22;64089;51.478;5.692;2023-12-29T12:07:16;10.20;99.90
42833;DHT22;64089;51.478;5.692;2023-12-29T12:09:42;10.20;99.90
42833;DHT22;64089;51.478;5.692;2023-12-29T12:12:10;10.20;99.90
42833;DHT22;64089;51.478;5.692;2023-12-29T12:14:45;10.10;99.90
42833;DHT22;64089;51.478;5.692;2023-12-29T12:17:11;10.20;99.90
42833;DHT22;64089;51.478;5.692;2023-12-29T12:19:37;10.20;99.90
42833;DHT22;64089;51.478;5.692;2023-12-29T12:22:03;10.20;99.90
42833;DHT22;64089;51.478;5.692;2023-12-29T12:24:29;10.20;99.90
42833;DHT22;64089;51.478;5.692;2023-12-29T12:26:55;10.10;99.90
42833;DHT22;64089;51.478;5.692;2023-12-29T12:29:20;10.10;99.90
42833;DHT22;64089;51.478;5.692;2023-12-29T12:31:56;10.00;99.90
42833;DHT22;64089;51.478;5.692;2023-12-29T12:34:22;9.90;99.90
42833;DHT22;64089;51.478;5.692;2023-12-29T12:36:51;9.80;99.90
42833;DHT22;64089;51.478;5.692;2023-12-29T12:39:17;9.70;99.90
42833;DHT22;64089;51.478;5.692;2023-12-29T12:41:43;9.80;99.90
42833;DHT22;64089;51.478;5.692;2023-12-29T12:44:13;9.80;99.90
42833;DHT22;64089;51.478;5.692;2023-12-29T12:46:44;9.80;99.90
42833;DHT22;64089;51.478;5.692;2023-12-29T12:49:15;9.80;99.90
42833;DHT22;64089;51.478;5.692;2023-12-29T12:51:40;9.80;99.90
42833;DHT22;64089;51.478;5.692;2023-12-29T12:54:07;9.90;99.90
42833;DHT22;64089;51.478;5.692;2023-12-29T12:56:33;9.90;99.90
42833;DHT22;64089;51.478;5.692;2023-12-29T12:59:01;10.00;99.90
42833;DHT22;64089;51.478;5.692;2023-12-29T13:01:28;10.00;99.90
42833;DHT22;64089;51.478;5.692;2023-12-29T13:03:54;10.00;99.90
42833;DHT22;64089;51.478;5.692;2023-12-29T13:06:22;10.00;99.90
42833;DHT22;64089;51.478;5.692;2023-12-29T13:08:49;10.00;99.90
42833;DHT22;64089;51.478;5.692;2023-12-29T13:11:19;10.00;99.90
42833;DHT22;64089;51.478;5.692;2023-12-29T13:13:47;10.10;99.90
42833;DHT22;64089;51.478;5.692;2023-12-29T13:16:13;10.10;99.90
42833;DHT22;64089;51.478;5.692;2023-12-29T13:18:39;10.00;99.90
42833;DHT22;64089;51.478;5.692;2023-12-29T13:21:06;10.00;99.90
42833;DHT22;64089;51.478;5.692;2023-12-29T13:23:32;10.00;99.90
42833;DHT22;64089;51.478;5.692;2023-12-29T13:26:18;9.90;99.90
42833;DHT22;64089;51.478;5.692;2023-12-29T13:28:44;9.80;99.90
42833;DHT22;64089;51.478;5.692;2023-12-29T13:31:12;9.80;99.90
42833;DHT22;64089;51.478;5.692;2023-12-29T13:33:47;9.90;99.90
42833;DHT22;64089;51.478;5.692;2023-12-29T13:36:34;9.80;99.90
42833;DHT22;64089;51.478;5.692;2023-12-29T13:39:13;9.90;99.90
42833;DHT22;64089;51.478;5.692;2023-12-29T13:41:41;10.00;99.90
42833;DHT22;64089;51.478;5.692;2023-12-29T13:44:08;10.10;99.90
42833;DHT22;64089;51.478;5.692;2023-12-29T13:46:35;10.30;99.90
42833;DHT22;64089;51.478;5.692;2023-12-29T13:49:02;10.40;99.90
42833;DHT22;64089;51.478;5.692;2023-12-29T13:51:28;10.60;99.90
42833;DHT22;64089;51.478;5.692;2023-12-29T13:54:00;10.70;99.90
42833;DHT22;64089;51.478;5.692;2023-12-29T13:56:26;10.80;99.90
42833;DHT22;64089;51.478;5.692;2023-12-29T13:58:52;10.80;99.90
42833;DHT22;64089;51.478;5.692;2023-12-29T14:01:18;10.90;99.90
42833;DHT22;64089;51.478;5.692;2023-12-29T14:03:51;10.90;99.90
42833;DHT22;64089;51.478;5.692;2023-12-29T14:06:22;10.90;99.90
42833;DHT22;64089;51.478;5.692;2023-12-29T14:08:51;11.00;99.90
42833;DHT22;64089;51.478;5.692;2023-12-29T14:11:16;11.00;99.90
42833;DHT22;64089;51.478;5.692;2023-12-29T14:13:43;11.00;99.90
42833;DHT22;64089;51.478;5.692;2023-12-29T14:16:09;11.00;99.90
42833;DHT22;64089;51.478;5.692;2023-12-29T14:21:30;11.10;99.90
42833;DHT22;64089;51.478;5.692;2023-12-29T14:24:12;11.00;99.90
42833;DHT22;64089;51.478;5.692;2023-12-29T14:26:58;11.00;99.90
42833;DHT22;64089;51.478;5.692;2023-12-29T14:29:25;11.00;99.90
42833;DHT22;64089;51.478;5.692;2023-12-29T14:31:51;11.00;99.90
42833;DHT22;64089;51.478;5.692;2023-12-29T14:34:17;11.00;99.90
42833;DHT22;64089;51.478;5.692;2023-12-29T14:36:43;11.00;99.90
42833;DHT22;64089;51.478;5.692;2023-12-29T14:39:09;11.00;99.90
42833;DHT22;64089;51.478;5.692;2023-12-29T14:41:38;11.00;99.90
42833;DHT22;64089;51.478;5.692;2023-12-29T14:44:04;11.00;99.90
42833;DHT22;64089;51.478;5.692;2023-12-29T14:46:30;11.00;99.90
42833;DHT22;64089;51.478;5.692;2023-12-29T14:48:58;11.10;99.90
42833;DHT22;64089;51.478;5.692;2023-12-29T14:51:24;11.20;99.90
42833;DHT22;64089;51.478;5.692;2023-12-29T14:53:50;11.30;99.90
42833;DHT22;64089;51.478;5.692;2023-12-29T14:56:16;11.30;99.90
42833;DHT22;64089;51.478;5.692;2023-12-29T14:58:43;11.30;99.90
42833;DHT22;64089;51.478;5.692;2023-12-29T15:01:09;11.30;99.90
42833;DHT22;64089;51.478;5.692;2023-12-29T15:03:35;11.30;99.90
42833;DHT22;64089;51.478;5.692;2023-12-29T15:06:01;11.30;99.90
42833;DHT22;64089;51.478;5.692;2023-12-29T15:08:28;11.30;99.90
42833;DHT22;64089;51.478;5.692;2023-12-29T15:11:02;11.30;99.90
42833;DHT22;64089;51.478;5.692;2023-12-29T15:13:28;11.20;99.90
42833;DHT22;64089;51.478;5.692;2023-12-29T15:15:56;11.20;99.90
42833;DHT22;64089;51.478;5.692;2023-12-29T15:18:22;11.20;99.90
42833;DHT22;64089;51.478;5.692;2023-12-29T15:20:49;11.20;99.90
42833;DHT22;64089;51.478;5.692;2023-12-29T15:23:14;11.10;99.90
42833;DHT22;64089;51.478;5.692;2023-12-29T15:25:40;11.20;99.90
42833;DHT22;64089;51.478;5.692;2023-12-29T15:28:07;11.10;99.90
42833;DHT22;64089;51.478;5.692;2023-12-29T15:30:33;11.10;99.90
42833;DHT22;64089;51.478;5.692;2023-12-29T15:32:59;11.10;99.90
42833;DHT22;64089;51.478;5.692;2023-12-29T15:35:24;11.00;99.90
42833;DHT22;64089;51.478;5.692;2023-12-29T15:37:50;11.00;99.90
42833;DHT22;64089;51.478;5.692;2023-12-29T15:40:15;11.00;99.90
42833;DHT22;64089;51.478;5.692;2023-12-29T15:42:41;11.00;99.90
42833;DHT22;64089;51.478;5.692;2023-12-29T15:45:07;11.00;99.90
42833;DHT22;64089;51.478;5.692;2023-12-29T15:47:32;11.00;99.90